Time;durP1;ratioP1;P1;durP2;ratioP2;P2;SDS_P1;SDS_P2;PMS_P1;PMS_P2;Temp;Humidity;BMP_temperature;BMP_pressure;BME280_temperature;BME280_humidity;BME280_pressure;Samples;Min_cycle;Max_cycle;Signal;HPM_P1;HPM_P2
2022/03/03 00:01:52;;;;;;;49.45;28.73;;;2.50;99.90;;;;;;5147508;27;20038;-69
2022/03/03 00:04:17;;;;;;;55.10;30.73;;;3.30;99.90;;;;;;5147924;27;20039;-69
2022/03/03 00:06:44;;;;;;;51.80;28.95;;;2.50;99.90;;;;;;5146772;27;20053;-69
2022/03/03 00:09:10;;;;;;;57.38;30.20;;;2.50;99.90;;;;;;5165093;27;20111;-69
2022/03/03 00:11:37;;;;;;;52.95;31.60;;;2.40;99.90;;;;;;5148657;27;20039;-69
2022/03/03 00:14:03;;;;;;;55.95;30.15;;;2.40;99.90;;;;;;5147429;27;20061;-69
2022/03/03 00:16:29;;;;;;;55.58;31.48;;;2.40;99.90;;;;;;5130661;27;20035;-69
2022/03/03 00:18:55;;;;;;;60.30;32.38;;;2.40;99.90;;;;;;5145939;27;20052;-69
2022/03/03 00:21:20;;;;;;;52.33;29.98;;;2.40;99.90;;;;;;5149242;27;20074;-69
2022/03/03 00:23:46;;;;;;;59.00;30.33;;;2.40;99.90;;;;;;5147665;27;20038;-69
2022/03/03 00:26:12;;;;;;;52.15;29.52;;;2.30;99.90;;;;;;5146262;27;20042;-69
2022/03/03 00:28:37;;;;;;;52.28;29.85;;;2.30;99.90;;;;;;5149706;27;20055;-69
2022/03/03 00:31:04;;;;;;;57.58;31.00;;;2.30;99.90;;;;;;5146881;27;20042;-69
2022/03/03 00:33:29;;;;;;;52.10;29.40;;;2.30;99.90;;;;;;5148298;27;20046;-69
2022/03/03 00:35:55;;;;;;;51.47;29.70;;;2.30;99.90;;;;;;5147495;27;20027;-69
2022/03/03 00:38:20;;;;;;;52.03;29.38;;;2.30;99.90;;;;;;5146566;27;20045;-69
2022/03/03 00:40:46;;;;;;;57.03;31.00;;;2.30;99.90;;;;;;5145508;27;20034;-69
2022/03/03 00:43:12;;;;;;;50.20;28.42;;;2.20;99.90;;;;;;5147072;27;20122;-68
2022/03/03 00:45:38;;;;;;;49.33;28.30;;;2.20;99.90;;;;;;5149246;27;20080;-69
2022/03/03 00:48:05;;;;;;;54.63;30.33;;;2.20;99.90;;;;;;5150569;27;20061;-69
2022/03/03 00:50:31;;;;;;;55.45;29.15;;;2.20;99.90;;;;;;5152385;27;20432;-69
2022/03/03 00:52:57;;;;;;;52.83;30.63;;;1.40;99.90;;;;;;5151189;27;20487;-69
2022/03/03 00:55:22;;;;;;;53.78;28.75;;;2.20;99.90;;;;;;5148987;27;20049;-69
2022/03/03 00:57:48;;;;;;;57.97;29.70;;;2.20;99.90;;;;;;5150642;27;20042;-69
2022/03/03 01:00:14;;;;;;;57.88;29.92;;;2.20;99.90;;;;;;5149111;27;20038;-69
2022/03/03 01:02:40;;;;;;;51.45;30.08;;;2.10;99.90;;;;;;5152021;27;20042;-69
2022/03/03 01:05:07;;;;;;;53.50;29.85;;;2.00;99.90;;;;;;5152604;27;20071;-70
2022/03/03 01:07:33;;;;;;;49.20;28.55;;;2.00;99.90;;;;;;5151543;27;20046;-70
2022/03/03 01:09:58;;;;;;;50.55;28.08;;;2.00;99.90;;;;;;5149056;27;20462;-69
2022/03/03 01:12:24;;;;;;;53.58;30.75;;;2.00;99.90;;;;;;5152207;27;20039;-69
2022/03/03 01:14:50;;;;;;;56.92;31.10;;;2.00;99.90;;;;;;5149537;27;20474;-69
2022/03/03 01:17:16;;;;;;;52.65;30.20;;;2.00;99.90;;;;;;5152751;27;20061;-69
2022/03/03 01:19:42;;;;;;;59.00;31.17;;;1.90;99.90;;;;;;5149136;27;20051;-69
2022/03/03 01:22:08;;;;;;;53.13;31.08;;;1.90;99.90;;;;;;5152286;27;20034;-70
2022/03/03 01:24:34;;;;;;;58.72;30.10;;;1.90;99.90;;;;;;5150847;27;20429;-69
2022/03/03 01:27:00;;;;;;;53.70;30.20;;;2.00;99.90;;;;;;5152617;27;20117;-69
2022/03/03 01:29:26;;;;;;;50.47;29.17;;;1.90;99.90;;;;;;5149654;27;20462;-69
2022/03/03 01:31:52;;;;;;;52.30;29.98;;;1.80;99.90;;;;;;5150072;27;20038;-69
2022/03/03 01:34:18;;;;;;;52.38;28.38;;;1.80;99.90;;;;;;5149050;27;20489;-70
2022/03/03 01:36:44;;;;;;;53.42;30.90;;;1.70;99.90;;;;;;5149507;27;20038;-69
2022/03/03 01:39:10;;;;;;;55.25;29.08;;;1.70;99.90;;;;;;5150534;27;20029;-69
2022/03/03 01:41:37;;;;;;;49.83;29.58;;;1.70;99.90;;;;;;5148912;27;20039;-70
2022/03/03 01:44:03;;;;;;;54.47;30.42;;;1.70;99.90;;;;;;5146103;27;20043;-69
2022/03/03 01:46:29;;;;;;;52.45;28.63;;;1.60;99.90;;;;;;5148989;27;20049;-69
2022/03/03 01:48:55;;;;;;;52.22;29.90;;;1.60;99.90;;;;;;5149344;27;20041;-69
2022/03/03 01:51:21;;;;;;;53.17;29.48;;;1.50;99.90;;;;;;5149875;27;20101;-70
2022/03/03 01:53:46;;;;;;;51.78;28.90;;;1.50;99.90;;;;;;5147486;27;20046;-69
2022/03/03 01:56:13;;;;;;;53.30;29.33;;;1.50;99.90;;;;;;5149767;27;20118;-69
2022/03/03 01:58:39;;;;;;;50.47;28.27;;;1.40;99.90;;;;;;5148220;27;20090;-69
2022/03/03 02:01:05;;;;;;;51.95;29.33;;;1.40;99.90;;;;;;5146676;27;20031;-69
2022/03/03 02:03:30;;;;;;;53.08;30.23;;;1.40;99.90;;;;;;5149588;27;20035;-70
2022/03/03 02:05:56;;;;;;;51.90;29.70;;;1.50;99.90;;;;;;5150101;27;20034;-69
2022/03/03 02:08:23;;;;;;;49.85;29.10;;;1.40;99.90;;;;;;5148740;27;20039;-69
2022/03/03 02:10:52;;;;;;;47.00;28.45;;;1.40;99.90;;;;;;5150301;27;20034;-69
2022/03/03 02:13:17;;;;;;;52.78;29.20;;;1.30;99.90;;;;;;5147083;27;20130;-69
2022/03/03 02:15:51;;;;;;;47.90;26.70;;;1.30;99.90;;;;;;5149919;27;20167;-69
2022/03/03 02:18:16;;;;;;;55.92;30.40;;;1.30;99.90;;;;;;5150012;27;20068;-69
2022/03/03 02:20:43;;;;;;;47.70;27.38;;;1.30;99.90;;;;;;5149716;27;20042;-69
2022/03/03 02:23:08;;;;;;;50.58;28.58;;;1.30;99.90;;;;;;5146585;27;20047;-69
2022/03/03 02:25:34;;;;;;;52.25;28.67;;;1.30;99.90;;;;;;5147979;27;20035;-69
2022/03/03 02:28:00;;;;;;;55.42;28.50;;;1.30;99.90;;;;;;5147011;27;20070;-69
2022/03/03 02:30:26;;;;;;;52.72;29.38;;;1.20;99.90;;;;;;5145081;27;20079;-69
2022/03/03 02:32:52;;;;;;;52.42;28.33;;;1.20;99.90;;;;;;5149649;27;20463;-69
2022/03/03 02:35:18;;;;;;;48.58;27.52;;;1.20;99.90;;;;;;5147412;27;20395;-69
2022/03/03 02:37:45;;;;;;;50.85;27.98;;;1.20;99.90;;;;;;5149157;27;20069;-69
2022/03/03 02:40:19;;;;;;;48.30;27.65;;;1.20;99.90;;;;;;5150081;27;21452;-69
2022/03/03 02:42:46;;;;;;;50.97;27.95;;;1.20;99.90;;;;;;5148488;27;20109;-69
2022/03/03 02:45:12;;;;;;;46.88;26.60;;;1.20;99.90;;;;;;5147456;27;20042;-69
2022/03/03 02:47:42;;;;;;;46.90;27.40;;;1.50;99.90;;;;;;5148376;27;20164;-69
2022/03/03 02:50:10;;;;;;;49.03;28.65;;;1.20;99.90;;;;;;5149193;27;20077;-69
2022/03/03 02:52:36;;;;;;;49.85;27.92;;;1.20;99.90;;;;;;5149472;27;20069;-69
2022/03/03 02:55:03;;;;;;;50.75;25.63;;;1.20;99.90;;;;;;5148784;27;20062;-69
2022/03/03 03:00:13;;;;;;;46.80;26.70;;;1.10;99.90;;;;;;5148125;27;20049;-69
2022/03/03 03:02:39;;;;;;;45.60;27.13;;;1.10;99.90;;;;;;5147312;27;20041;-69
2022/03/03 03:05:04;;;;;;;46.38;25.95;;;1.20;99.90;;;;;;5147654;27;20038;-69
2022/03/03 03:07:30;;;;;;;49.53;25.85;;;1.10;99.90;;;;;;5149693;27;20050;-69
2022/03/03 03:09:56;;;;;;;45.90;26.27;;;1.10;99.90;;;;;;5149577;27;20061;-69
2022/03/03 03:12:21;;;;;;;45.22;25.70;;;1.10;99.90;;;;;;5147701;27;20396;-69
2022/03/03 03:14:47;;;;;;;43.20;25.30;;;1.10;99.90;;;;;;5149003;27;20050;-69
2022/03/03 03:17:13;;;;;;;43.60;25.58;;;1.10;99.90;;;;;;5150591;27;20102;-69
2022/03/03 03:19:38;;;;;;;43.45;25.48;;;1.10;99.90;;;;;;5147438;27;20079;-69
2022/03/03 03:22:04;;;;;;;43.13;25.30;;;1.00;99.90;;;;;;5149290;27;20048;-69
2022/03/03 03:24:30;;;;;;;45.60;25.95;;;1.00;99.90;;;;;;5149785;27;20390;-69
2022/03/03 03:26:56;;;;;;;44.58;25.13;;;1.00;99.90;;;;;;5147421;27;20043;-69
2022/03/03 03:29:21;;;;;;;45.47;26.63;;;1.00;99.90;;;;;;5147607;27;20053;-69
2022/03/03 03:31:47;;;;;;;45.58;25.23;;;1.00;99.90;;;;;;5147969;27;20038;-69
2022/03/03 03:34:13;;;;;;;49.60;26.00;;;0.90;99.90;;;;;;5149111;27;20034;-69
2022/03/03 03:36:39;;;;;;;43.97;24.90;;;1.10;99.90;;;;;;5149122;27;20038;-69
2022/03/03 03:39:05;;;;;;;42.25;25.30;;;0.80;99.90;;;;;;5146836;27;20054;-70
2022/03/03 03:41:30;;;;;;;46.22;25.25;;;0.80;99.90;;;;;;5147217;27;20053;-69
2022/03/03 03:43:56;;;;;;;45.20;25.33;;;0.70;99.90;;;;;;5165190;27;20080;-69
2022/03/03 03:46:22;;;;;;;46.45;24.58;;;0.70;99.90;;;;;;5147668;27;20094;-69
2022/03/03 03:48:48;;;;;;;42.88;24.80;;;0.60;99.90;;;;;;5147455;27;20371;-69
2022/03/03 03:51:13;;;;;;;41.65;25.33;;;0.60;99.90;;;;;;5147787;27;20042;-69
2022/03/03 03:53:39;;;;;;;43.90;25.42;;;0.70;99.90;;;;;;5149809;27;20038;-69
2022/03/03 03:56:05;;;;;;;42.90;24.23;;;0.70;99.90;;;;;;5147536;27;20390;-70
2022/03/03 03:58:31;;;;;;;42.03;24.55;;;0.70;99.90;;;;;;5147695;27;20423;-69
2022/03/03 04:00:57;;;;;;;45.42;26.33;;;0.70;99.90;;;;;;5150746;27;20039;-69
2022/03/03 04:03:22;;;;;;;42.17;23.98;;;0.70;99.90;;;;;;5148283;27;20042;-69
2022/03/03 04:05:48;;;;;;;45.08;25.35;;;0.80;99.90;;;;;;5146068;27;20031;-69
2022/03/03 04:08:14;;;;;;;41.47;25.63;;;0.80;99.90;;;;;;5146451;27;20035;-69
2022/03/03 04:10:40;;;;;;;43.88;25.67;;;0.70;99.90;;;;;;5148719;27;20026;-69
2022/03/03 04:13:06;;;;;;;46.40;24.88;;;0.80;99.90;;;;;;5147737;27;20467;-69
2022/03/03 04:15:31;;;;;;;43.60;24.83;;;0.70;99.90;;;;;;5146364;27;20039;-69
2022/03/03 04:17:57;;;;;;;42.60;24.67;;;1.10;99.90;;;;;;5150536;27;20151;-69
2022/03/03 04:20:23;;;;;;;47.42;25.20;;;0.70;99.90;;;;;;5151814;27;20398;-69
2022/03/03 04:22:49;;;;;;;46.35;23.02;;;0.60;99.90;;;;;;5149731;27;20087;-69
2022/03/03 04:25:15;;;;;;;42.53;24.15;;;0.70;99.90;;;;;;5153980;27;20102;-69
2022/03/03 04:27:41;;;;;;;39.78;24.00;;;0.60;99.90;;;;;;5152666;27;20463;-69
2022/03/03 04:30:09;;;;;;;41.83;24.27;;;0.60;99.90;;;;;;5152174;27;20389;-69
2022/03/03 04:32:35;;;;;;;43.08;25.20;;;0.60;99.90;;;;;;5152016;27;20066;-69
2022/03/03 04:35:02;;;;;;;43.25;25.40;;;0.60;99.90;;;;;;5151006;27;20039;-70
2022/03/03 04:37:28;;;;;;;43.40;24.63;;;0.50;99.90;;;;;;5152974;27;20095;-69
2022/03/03 04:39:53;;;;;;;39.25;23.58;;;0.60;99.90;;;;;;5148396;27;20370;-69
2022/03/03 04:42:19;;;;;;;41.55;23.35;;;0.60;99.90;;;;;;5152245;27;20039;-69
2022/03/03 04:44:44;;;;;;;40.58;23.42;;;0.60;99.90;;;;;;5151593;27;20089;-69
2022/03/03 04:47:10;;;;;;;40.10;23.73;;;0.50;99.90;;;;;;5152327;27;20061;-69
2022/03/03 04:49:36;;;;;;;39.53;23.17;;;0.50;99.90;;;;;;5151528;27;20117;-70
2022/03/03 04:52:02;;;;;;;38.70;22.17;;;0.50;99.90;;;;;;5150909;27;20486;-69
2022/03/03 04:54:27;;;;;;;39.60;23.17;;;0.50;99.90;;;;;;5150914;27;20042;-69
2022/03/03 04:56:55;;;;;;;40.75;23.27;;;0.50;99.90;;;;;;5152925;27;20628;-69
2022/03/03 04:59:23;;;;;;;39.72;23.63;;;0.50;99.90;;;;;;5149117;27;20367;-69
2022/03/03 05:01:50;;;;;;;40.50;23.92;;;0.40;99.90;;;;;;5150825;27;20459;-69
2022/03/03 05:04:17;;;;;;;39.13;23.20;;;0.40;99.90;;;;;;5151070;27;20053;-69
2022/03/03 05:06:43;;;;;;;39.88;22.25;;;0.40;99.90;;;;;;5153355;27;20035;-69
2022/03/03 05:09:08;;;;;;;37.65;22.58;;;0.30;99.90;;;;;;5151586;27;20038;-69
2022/03/03 05:11:34;;;;;;;39.40;23.05;;;0.30;99.90;;;;;;5151347;27;20395;-69
2022/03/03 05:13:59;;;;;;;40.95;23.50;;;0.40;99.90;;;;;;5150368;27;20046;-69
2022/03/03 05:16:25;;;;;;;40.95;22.88;;;0.40;99.90;;;;;;5153295;27;20042;-69
2022/03/03 05:18:51;;;;;;;37.78;21.42;;;0.40;99.90;;;;;;5151422;27;20034;-69
2022/03/03 05:21:16;;;;;;;38.28;22.50;;;1.50;99.90;;;;;;5150539;27;20045;-69
2022/03/03 05:23:42;;;;;;;41.47;23.00;;;0.40;99.90;;;;;;5150122;27;20038;-69
2022/03/03 05:26:08;;;;;;;40.38;22.48;;;0.40;99.90;;;;;;5151069;27;20088;-71
2022/03/03 05:28:34;;;;;;;40.88;24.02;;;0.40;99.90;;;;;;5150861;27;20049;-69
2022/03/03 05:31:00;;;;;;;41.78;23.60;;;0.40;99.90;;;;;;5148812;27;20513;-69
2022/03/03 05:33:26;;;;;;;43.17;23.58;;;0.40;99.90;;;;;;5152024;27;20038;-69
2022/03/03 05:35:58;;;;;;;39.63;22.00;;;0.40;99.90;;;;;;5150883;27;20039;-69
2022/03/03 05:38:29;;;;;;;40.85;23.88;;;0.30;99.90;;;;;;5147272;27;20091;-69
2022/03/03 05:40:55;;;;;;;41.35;23.65;;;0.40;99.90;;;;;;5149376;27;20087;-69
2022/03/03 05:43:22;;;;;;;40.10;22.63;;;0.30;99.90;;;;;;5151533;27;20431;-69
2022/03/03 05:45:48;;;;;;;41.40;23.83;;;0.60;99.90;;;;;;5148290;27;20039;-69
2022/03/03 05:48:17;;;;;;;37.78;22.55;;;0.20;99.90;;;;;;5151056;27;20091;-69
2022/03/03 05:50:43;;;;;;;36.50;21.48;;;0.20;99.90;;;;;;5149501;27;20030;-69
2022/03/03 05:53:09;;;;;;;39.13;23.25;;;0.20;99.90;;;;;;5150890;27;20042;-69
2022/03/03 05:55:49;;;;;;;35.72;22.52;;;0.20;99.90;;;;;;5150286;27;20035;-69
2022/03/03 05:58:16;;;;;;;38.33;21.90;;;0.20;99.90;;;;;;5150906;27;20039;-69
2022/03/03 06:00:47;;;;;;;36.38;21.77;;;0.10;99.90;;;;;;5149219;27;20039;-69
2022/03/03 06:03:16;;;;;;;41.25;22.42;;;0.10;99.90;;;;;;5149168;27;20041;-69
2022/03/03 06:05:56;;;;;;;36.75;21.60;;;0.10;99.90;;;;;;5147350;27;20038;-69
2022/03/03 06:08:31;;;;;;;37.00;22.83;;;0.00;99.90;;;;;;5149879;27;20042;-69
2022/03/03 06:11:01;;;;;;;36.88;22.05;;;0.00;99.90;;;;;;5150206;27;20034;-69
2022/03/03 06:13:35;;;;;;;34.50;21.02;;;0.10;99.90;;;;;;5151787;27;20715;-69
2022/03/03 06:16:03;;;;;;;38.22;23.02;;;0.10;99.90;;;;;;5166957;27;20035;-69
2022/03/03 06:18:32;;;;;;;37.33;22.45;;;0.10;99.90;;;;;;5147343;27;20046;-69
2022/03/03 06:20:58;;;;;;;36.80;21.52;;;0.00;99.90;;;;;;5147779;27;20110;-69
2022/03/03 06:23:24;;;;;;;33.25;21.25;;;0.00;99.90;;;;;;5149074;27;20596;-69
2022/03/03 06:26:00;;;;;;;40.00;22.73;;;0.00;99.90;;;;;;5148597;27;20053;-69
2022/03/03 06:28:27;;;;;;;33.15;20.70;;;-0.10;99.90;;;;;;5147599;27;20047;-69
2022/03/03 06:30:52;;;;;;;36.22;22.30;;;-0.10;99.90;;;;;;5149522;27;20035;-69
2022/03/03 06:33:18;;;;;;;39.33;22.98;;;0.20;99.90;;;;;;5151512;27;20499;-69
2022/03/03 06:35:43;;;;;;;37.90;21.50;;;-0.10;99.90;;;;;;5147948;27;20046;-69
2022/03/03 06:38:09;;;;;;;36.08;21.30;;;-0.10;99.90;;;;;;5148374;27;20038;-69
2022/03/03 06:40:35;;;;;;;34.85;20.45;;;-0.10;99.90;;;;;;5149105;27;20039;-69
2022/03/03 06:43:02;;;;;;;82.80;43.95;;;0.00;99.90;;;;;;5149823;27;20049;-69
2022/03/03 06:45:29;;;;;;;45.00;27.92;;;0.00;99.90;;;;;;5151093;27;20042;-69
2022/03/03 06:47:56;;;;;;;41.03;23.73;;;0.00;99.90;;;;;;5149090;27;20035;-69
2022/03/03 06:50:22;;;;;;;32.78;21.80;;;0.10;99.90;;;;;;5148979;27;20046;-69
2022/03/03 06:52:50;;;;;;;34.70;22.30;;;0.20;99.90;;;;;;5147863;27;20039;-69
2022/03/03 06:55:21;;;;;;;37.03;23.27;;;0.20;99.90;;;;;;5148624;27;20558;-69
2022/03/03 06:57:50;;;;;;;35.95;20.80;;;0.20;99.90;;;;;;5149120;27;20110;-69
2022/03/03 07:00:19;;;;;;;33.20;21.80;;;0.30;99.90;;;;;;5148584;27;20125;-68
2022/03/03 07:02:47;;;;;;;40.03;22.73;;;0.20;99.90;;;;;;5146954;27;20111;-68
2022/03/03 07:05:16;;;;;;;37.88;23.40;;;0.30;99.90;;;;;;5150827;27;21389;-68
2022/03/03 07:07:44;;;;;;;35.78;21.70;;;0.30;99.90;;;;;;5147073;27;20534;-69
2022/03/03 07:10:12;;;;;;;222.73;107.32;;;0.40;99.90;;;;;;5143764;27;20455;-69
2022/03/03 07:12:38;;;;;;;82.70;45.35;;;0.40;99.90;;;;;;5145309;27;20045;-68
2022/03/03 07:15:05;;;;;;;61.78;36.05;;;0.40;99.90;;;;;;5149378;27;20055;-69
2022/03/03 07:17:46;;;;;;;62.35;41.20;;;0.50;99.90;;;;;;5147092;27;20039;-69
2022/03/03 07:20:46;;;;;;;36.80;22.55;;;0.50;99.90;;;;;;5144801;27;20137;-69
2022/03/03 07:23:33;;;;;;;37.47;23.38;;;0.60;99.90;;;;;;5145099;27;20039;-70
2022/03/03 07:26:00;;;;;;;44.00;29.35;;;0.60;99.90;;;;;;5143236;27;20450;-69
2022/03/03 07:28:28;;;;;;;35.35;21.55;;;0.90;99.90;;;;;;5141234;27;20059;-69
2022/03/03 07:30:55;;;;;;;35.45;21.70;;;0.70;99.90;;;;;;5147768;27;20039;-69
2022/03/03 07:33:53;;;;;;;31.30;20.10;;;0.80;99.90;;;;;;5147053;27;20079;-69
2022/03/03 07:36:24;;;;;;;32.53;19.65;;;0.80;99.90;;;;;;5143342;27;20046;-69
2022/03/03 07:39:07;;;;;;;30.85;20.05;;;0.90;99.90;;;;;;5128977;27;20030;-68
2022/03/03 07:41:32;;;;;;;34.65;20.45;;;0.90;99.90;;;;;;5147626;27;20089;-69
2022/03/03 07:44:00;;;;;;;29.45;17.67;;;1.80;99.90;;;;;;5147976;27;20070;-69
2022/03/03 07:46:27;;;;;;;31.95;19.48;;;1.00;99.90;;;;;;5145152;27;20053;-69
2022/03/03 07:48:53;;;;;;;33.17;20.77;;;1.10;99.90;;;;;;5146943;27;20049;-69
2022/03/03 07:51:20;;;;;;;75.18;40.22;;;1.20;99.90;;;;;;5148515;27;20035;-69
2022/03/03 07:53:47;;;;;;;43.70;26.70;;;1.20;99.90;;;;;;5149575;27;20097;-68
2022/03/03 07:56:21;;;;;;;35.40;21.27;;;1.20;99.90;;;;;;5147359;27;20027;-69
2022/03/03 07:58:50;;;;;;;36.22;19.80;;;1.30;99.90;;;;;;5142467;27;20535;-69
2022/03/03 08:01:19;;;;;;;31.60;19.45;;;1.40;99.90;;;;;;5141184;27;20030;-69
2022/03/03 08:03:46;;;;;;;32.90;19.65;;;1.50;99.90;;;;;;5142529;27;20121;-69
2022/03/03 08:06:15;;;;;;;29.33;19.20;;;1.50;99.90;;;;;;5146617;27;20076;-69
2022/03/03 08:08:41;;;;;;;30.80;19.17;;;1.60;99.90;;;;;;5150289;27;20038;-69
2022/03/03 08:11:09;;;;;;;28.73;19.23;;;1.70;99.90;;;;;;5148372;27;20034;-69
2022/03/03 08:13:35;;;;;;;29.85;19.33;;;1.70;99.90;;;;;;5148493;27;20082;-69
2022/03/03 08:16:02;;;;;;;32.97;20.92;;;2.70;99.90;;;;;;5148752;27;20057;-69
2022/03/03 08:18:35;;;;;;;31.50;19.65;;;1.90;99.90;;;;;;5148590;27;20046;-69
2022/03/03 08:21:02;;;;;;;29.48;19.80;;;2.00;99.90;;;;;;5147004;27;20043;-68
2022/03/03 08:23:29;;;;;;;29.67;20.13;;;2.00;99.90;;;;;;5149573;27;20041;-69
2022/03/03 08:25:55;;;;;;;31.17;19.73;;;2.10;99.90;;;;;;5147950;27;20031;-69
2022/03/03 08:28:24;;;;;;;29.38;18.35;;;2.30;99.90;;;;;;5147970;27;20052;-69
2022/03/03 08:31:03;;;;;;;28.50;17.67;;;2.30;99.90;;;;;;5147890;27;20078;-69
2022/03/03 08:33:54;;;;;;;41.72;28.52;;;2.40;99.90;;;;;;5164054;27;20060;-69
2022/03/03 08:37:00;;;;;;;30.35;18.83;;;2.50;99.90;;;;;;5143067;27;20042;-69
2022/03/03 08:39:28;;;;;;;31.10;20.10;;;2.60;99.90;;;;;;5085910;28;20058;-69
2022/03/03 08:41:57;;;;;;;29.00;18.48;;;2.70;99.90;;;;;;5081798;28;20044;-69
2022/03/03 08:44:32;;;;;;;27.92;17.90;;;2.80;99.90;;;;;;5127596;27;20046;-69
2022/03/03 08:46:58;;;;;;;31.58;19.80;;;2.90;99.90;;;;;;5143723;27;20054;-69
2022/03/03 08:49:33;;;;;;;29.40;18.90;;;3.00;99.90;;;;;;5147296;27;20030;-69
2022/03/03 08:52:01;;;;;;;28.38;18.90;;;3.10;99.90;;;;;;5139742;27;20592;-69
2022/03/03 08:54:28;;;;;;;27.77;18.33;;;3.20;99.90;;;;;;5144568;27;20629;-69
2022/03/03 08:56:54;;;;;;;30.38;17.88;;;3.30;99.90;;;;;;5144273;27;20054;-69
2022/03/03 08:59:20;;;;;;;27.23;18.38;;;3.40;99.90;;;;;;5163805;27;20482;-69
2022/03/03 09:01:46;;;;;;;29.08;17.92;;;3.50;99.90;;;;;;5143879;27;20388;-69
2022/03/03 09:04:12;;;;;;;26.88;16.85;;;3.60;99.90;;;;;;5145294;27;20051;-69
2022/03/03 09:06:38;;;;;;;25.35;17.55;;;3.70;99.90;;;;;;5149489;27;20035;-69
2022/03/03 09:09:04;;;;;;;26.85;17.42;;;3.80;99.90;;;;;;5146837;27;20037;-69
2022/03/03 09:11:29;;;;;;;22.48;16.45;;;3.90;99.90;;;;;;5146583;27;20038;-69
2022/03/03 09:13:55;;;;;;;26.13;16.90;;;3.90;99.90;;;;;;5146824;27;20099;-69
2022/03/03 09:16:21;;;;;;;26.52;16.27;;;4.00;99.90;;;;;;5145521;27;20050;-69
2022/03/03 09:18:48;;;;;;;29.52;17.55;;;4.10;99.90;;;;;;5143048;27;20078;-69
2022/03/03 09:21:15;;;;;;;25.83;16.88;;;4.30;99.90;;;;;;5150934;27;20092;-69
2022/03/03 09:23:41;;;;;;;25.52;16.98;;;4.30;99.90;;;;;;5149326;27;20123;-69
2022/03/03 09:26:07;;;;;;;24.02;16.63;;;4.50;99.90;;;;;;5151039;27;20039;-69
2022/03/03 09:28:33;;;;;;;23.17;16.42;;;4.60;99.90;;;;;;5145644;27;20093;-69
2022/03/03 09:30:59;;;;;;;25.40;15.85;;;4.60;99.90;;;;;;5131502;27;20058;-69
2022/03/03 09:33:25;;;;;;;29.70;16.88;;;4.80;99.90;;;;;;5152234;27;20115;-69
2022/03/03 09:35:51;;;;;;;27.60;15.80;;;4.90;99.90;;;;;;5149563;27;20047;-69
2022/03/03 09:38:17;;;;;;;23.98;16.50;;;5.40;99.90;;;;;;5149788;27;20107;-69
2022/03/03 09:40:44;;;;;;;25.30;16.33;;;5.20;99.90;;;;;;5150705;27;20509;-69
2022/03/03 09:43:09;;;;;;;23.63;15.32;;;5.20;99.90;;;;;;5150310;27;20057;-69
2022/03/03 09:45:37;;;;;;;22.33;15.07;;;5.30;99.90;;;;;;5149641;27;20038;-69
2022/03/03 09:48:06;;;;;;;22.60;15.40;;;5.40;99.90;;;;;;5150347;27;20050;-69
2022/03/03 09:50:35;;;;;;;21.65;15.25;;;5.50;99.90;;;;;;5146824;27;20047;-69
2022/03/03 09:53:10;;;;;;;22.85;15.15;;;5.60;99.90;;;;;;5143260;27;20061;-69
2022/03/03 09:55:38;;;;;;;22.77;16.90;;;5.70;99.90;;;;;;5145798;27;20106;-69
2022/03/03 09:58:06;;;;;;;23.02;15.90;;;5.80;99.90;;;;;;5142284;27;20121;-69
2022/03/03 10:00:36;;;;;;;27.05;16.45;;;5.80;99.90;;;;;;5147696;27;20034;-69
2022/03/03 10:03:08;;;;;;;22.38;15.77;;;5.90;99.90;;;;;;5130680;27;20051;-69
2022/03/03 10:05:49;;;;;;;23.67;15.93;;;5.90;99.90;;;;;;5143192;27;20054;-69
2022/03/03 10:08:22;;;;;;;25.58;16.40;;;6.00;99.90;;;;;;5150038;27;20501;-70
2022/03/03 10:10:50;;;;;;;22.92;16.35;;;6.00;99.90;;;;;;5151521;27;20042;-69
2022/03/03 10:13:18;;;;;;;21.00;15.05;;;6.00;99.90;;;;;;5152232;27;20034;-69
2022/03/03 10:15:49;;;;;;;22.05;15.43;;;6.10;99.90;;;;;;5148627;27;20483;-69
2022/03/03 10:18:16;;;;;;;21.80;15.43;;;6.20;99.90;;;;;;5147519;27;20039;-69
2022/03/03 10:20:58;;;;;;;24.92;16.15;;;6.30;99.90;;;;;;5148541;27;20655;-69
2022/03/03 10:23:33;;;;;;;20.70;15.63;;;6.30;99.90;;;;;;5147609;27;20097;-69
2022/03/03 10:26:00;;;;;;;24.08;15.13;;;6.40;99.90;;;;;;5151407;27;20089;-69
2022/03/03 10:28:31;;;;;;;21.80;14.80;;;6.70;99.90;;;;;;5148945;27;20085;-69
2022/03/03 10:31:03;;;;;;;22.10;14.45;;;6.70;99.90;;;;;;5149186;27;20038;-69
2022/03/03 10:33:37;;;;;;;18.98;14.45;;;6.70;99.90;;;;;;5147507;27;20039;-69
2022/03/03 10:36:08;;;;;;;21.55;14.18;;;6.80;99.90;;;;;;5147600;27;20034;-69
2022/03/03 10:38:43;;;;;;;24.15;15.07;;;7.00;99.90;;;;;;5147768;27;20038;-69
2022/03/03 10:41:29;;;;;;;22.60;13.27;;;7.10;99.90;;;;;;5145889;27;20091;-69
2022/03/03 10:43:55;;;;;;;19.80;13.93;;;7.20;99.90;;;;;;5145013;27;20487;-69
2022/03/03 10:46:21;;;;;;;21.38;14.93;;;7.30;99.90;;;;;;5147924;27;20486;-69
2022/03/03 10:48:47;;;;;;;22.15;14.82;;;7.40;99.90;;;;;;5148201;27;20127;-70
2022/03/03 10:51:16;;;;;;;19.35;13.68;;;7.50;99.90;;;;;;5150541;27;20509;-69
2022/03/03 10:53:43;;;;;;;19.17;12.90;;;7.40;99.90;;;;;;5145728;27;20371;-69
2022/03/03 10:56:17;;;;;;;19.77;13.77;;;7.50;99.90;;;;;;5150394;27;20142;-70
2022/03/03 10:58:57;;;;;;;20.23;13.88;;;7.60;99.90;;;;;;5149926;27;20089;-70
2022/03/03 11:01:25;;;;;;;19.63;14.07;;;7.60;99.90;;;;;;5142972;27;20077;-69
2022/03/03 11:03:53;;;;;;;20.80;14.43;;;7.60;99.90;;;;;;5142906;27;20079;-71
2022/03/03 11:06:21;;;;;;;18.17;13.82;;;7.80;99.90;;;;;;5143331;27;20043;-71
2022/03/03 11:08:48;;;;;;;19.45;14.15;;;7.70;99.80;;;;;;5147272;27;20049;-71
2022/03/03 11:11:14;;;;;;;24.05;14.35;;;7.80;99.90;;;;;;5147211;27;20398;-70
2022/03/03 11:13:40;;;;;;;20.08;13.80;;;7.80;99.90;;;;;;5147017;27;20054;-71
2022/03/03 11:16:07;;;;;;;19.02;13.63;;;7.90;99.90;;;;;;5146926;27;20466;-71
2022/03/03 11:18:34;;;;;;;18.95;13.00;;;8.00;99.90;;;;;;5147954;27;20087;-71
2022/03/03 11:21:00;;;;;;;16.55;12.15;;;8.20;99.90;;;;;;5147192;27;20034;-71
2022/03/03 11:23:37;;;;;;;22.02;12.18;;;8.20;98.60;;;;;;5147280;27;20054;-71
2022/03/03 11:26:04;;;;;;;16.60;12.38;;;8.20;96.30;;;;;;5149100;27;20049;-71
2022/03/03 11:28:35;;;;;;;21.88;12.73;;;8.20;95.90;;;;;;5146400;27;20035;-71
2022/03/03 11:31:22;;;;;;;18.00;12.65;;;8.30;96.60;;;;;;5148833;27;20447;-71
2022/03/03 11:33:47;;;;;;;;;;;8.40;95.30;;;;;;5131650;27;20043;-71
2022/03/03 11:36:20;;;;;;;21.43;12.73;;;8.50;96.00;;;;;;5142301;27;19921;-74
2022/03/03 11:38:52;;;;;;;18.98;12.00;;;8.50;94.40;;;;;;5143317;27;20042;-71
2022/03/03 11:41:23;;;;;;;16.25;12.20;;;8.60;94.20;;;;;;5147613;27;20053;-70
2022/03/03 11:44:00;;;;;;;19.85;13.05;;;8.60;93.60;;;;;;5144333;27;20074;-71
2022/03/03 11:46:54;;;;;;;16.42;11.52;;;8.60;94.10;;;;;;5143358;27;20382;-71
2022/03/03 11:49:25;;;;;;;17.77;13.07;;;8.70;92.00;;;;;;5142516;27;20054;-70
2022/03/03 11:51:54;;;;;;;17.42;12.50;;;8.70;93.40;;;;;;5144169;27;20420;-71
2022/03/03 11:54:31;;;;;;;17.58;12.63;;;8.80;92.80;;;;;;5144531;27;20035;-71
2022/03/03 11:57:03;;;;;;;20.30;13.70;;;8.80;93.10;;;;;;5144160;27;20030;-71
2022/03/03 11:59:36;;;;;;;18.15;12.90;;;8.90;92.20;;;;;;5144708;27;20039;-71
2022/03/03 12:02:02;;;;;;;17.55;12.93;;;8.90;90.50;;;;;;5147795;27;20095;-71
2022/03/03 12:04:28;;;;;;;17.35;12.27;;;8.90;90.90;;;;;;5147535;27;20038;-70
2022/03/03 12:06:55;;;;;;;18.55;13.02;;;8.90;90.50;;;;;;5142471;27;20047;-71
2022/03/03 12:09:32;;;;;;;17.67;11.98;;;8.90;90.50;;;;;;5146293;27;20069;-70
2022/03/03 12:12:19;;;;;;;17.20;12.80;;;9.00;90.70;;;;;;5145368;27;20199;-70
2022/03/03 12:14:57;;;;;;;18.25;12.65;;;8.90;90.90;;;;;;5128239;27;20126;-71
2022/03/03 12:17:46;;;;;;;16.95;13.18;;;9.00;91.00;;;;;;5144108;27;20047;-71
2022/03/03 12:20:23;;;;;;;18.95;13.57;;;9.40;87.50;;;;;;5147667;27;20043;-71
2022/03/03 12:23:16;;;;;;;17.80;12.98;;;9.10;90.70;;;;;;5143642;27;20059;-71
2022/03/03 12:25:50;;;;;;;17.67;12.60;;;9.20;86.90;;;;;;5147919;27;20049;-71
2022/03/03 12:28:20;;;;;;;16.20;12.05;;;9.30;88.30;;;;;;5146598;27;20037;-71
2022/03/03 12:30:47;;;;;;;18.40;12.70;;;9.20;88.70;;;;;;5145354;27;20035;-71
2022/03/03 12:33:28;;;;;;;16.42;11.80;;;9.20;89.40;;;;;;5147642;27;20039;-71
2022/03/03 12:36:02;;;;;;;22.73;12.93;;;9.30;90.00;;;;;;5145215;27;20078;-71
2022/03/03 12:38:28;;;;;;;19.73;12.63;;;9.40;89.00;;;;;;5146864;27;20042;-71
2022/03/03 12:40:54;;;;;;;17.75;11.85;;;9.30;85.30;;;;;;5148743;27;21407;-71
2022/03/03 12:43:21;;;;;;;16.35;12.00;;;9.40;86.10;;;;;;5149568;27;20142;-71
2022/03/03 12:45:48;;;;;;;20.02;12.02;;;9.40;87.50;;;;;;5152112;27;20098;-71
2022/03/03 12:48:26;;;;;;;14.48;11.88;;;9.40;86.90;;;;;;5150216;27;20048;-71